Portada
METAR-TAF:

METAR-TAF

Aeropuertos :

Curazao, Antillas Neerlandesas

Aeropuerto Internacional Hato

latitud: 12-12N, longitud: 068-58W, altitud: 9 m

Observación

El informe se hizo hace 53 minutos, a las 10:00 UTC
Viento 11 kt del este-sureste
Temperatura 27°C
Humedad 79%
Presión 1013 hPa
Visibilidad 10 km o más
Nubes dispersas a una altura de 1600 ft

METAR: TNCC 301000Z 11011KT 9999 SCT016 27/23 Q1013 NOSIG

Hora: 06:53 (10:53 UTC)

Pronóstico

El informe se hizo hace 7 horas y 13 minutos, a las 03:40 UTC
Pronóstico válido del 30 a las 06 UTC al 01 a las 06 UTC
Viento 16 kt del este con ráfagas de 28 kt
Visibilidad 10 km o más
Nubes dispersas a una altura de 2000 ft
Temporalmente
del 30 a las 06 UTC al 30 a las 13 UTC
Cielo nuboso a una altura de 1400 ft

TAF: TNCC 300340Z 3006/0106 09016G28KT 9999 SCT020 TEMPO 3006/3013 BKN014

Observaciones y pronósticos meteorológicos de más de 4000 aeropuertos (mensajes METAR y TAF).

Los puntos amarillos y rojos representan las estaciones disponibles.

Ponga el ratón en el punto deseado para ver el nombre de la estación.

Haga clic para ver las observaciones y los pronósticos meteorológicos.

Para cambiar el mapa : haga clic en los botones verdes con una cruz de color negro para hacer un zoom, en el botón verde con un guión para alejar o en las flechas verdes para mapas adyacentes.


METAR-TAF: